Welcome to Des Moines Iowa Weather. I am an independent private personal weather station on the Northwest Side of Des Moines, Iowa. Just East of Windsor Heights and just West of Glendale . This site is also mobile friendly.

There are no active watches, warnings or advisories


Visit our other weather sites:

Historical Data

Weather Station Setup



Weather Underground History page Text

Daily Summary for February 18, 2018 Units:  English    Metric   Both
« Previous Day
Next Day »
Daily Weekly Monthly Yearly Custom
  High: Low: Average:
Temperature: 52.6 °F 23.8 °F 39.4 °F
Dew Point: 34.0 °F 22.0 °F 28.2 °F
Humidity: 93 % 37 % 68 %
Wind Speed: 14.0 mph 0.0 mph 2.3 mph
Wind Gust: 16.0 mph - -
Wind:- - South
Pressure: 30.16 in 29.64 in -
Precipitation: 0.00 in    
Historical Graphs
 
 
Tabular Data for February 18, 2018
Time Temperature Dew Point Pressure Wind Wind Speed Wind Gust Humidity Rainfall Rate (Hourly)
00:11 24.8 °F 22.0 °F 30.16 in Calm     90 % 0.00 in
00:26 24.7 °F 22.0 °F 30.16 in Calm     90 % 0.00 in
00:41 24.5 °F 22.0 °F 30.16 in Calm     90 % 0.00 in
00:56 24.4 °F 22.0 °F 30.15 in Calm     91 % 0.00 in
01:11 24.3 °F 22.0 °F 30.16 in Calm     91 % 0.00 in
01:26 24.0 °F 22.0 °F 30.15 in Calm     91 % 0.00 in
01:41 23.8 °F 22.0 °F 30.15 in Calm     91 % 0.00 in
01:56 23.8 °F 22.0 °F 30.14 in Calm     91 % 0.00 in
02:11 23.9 °F 22.0 °F 30.13 in Calm     92 % 0.00 in
02:26 24.0 °F 22.0 °F 30.13 in Calm     92 % 0.00 in
02:44 24.2 °F 22.0 °F 30.13 in Calm   2.0 mph 92 % 0.00 in
02:56 24.3 °F 22.0 °F 30.12 in Calm   3.0 mph 92 % 0.00 in
03:20 24.5 °F 23.0 °F 30.12 in Calm     92 % 0.00 in
03:26 24.7 °F 23.0 °F 30.11 in Calm   2.0 mph 93 % 0.00 in
03:42 24.8 °F 23.0 °F 30.11 in Calm   2.0 mph 93 % 0.00 in
03:56 25.1 °F 23.0 °F 30.11 in Calm   3.0 mph 93 % 0.00 in
04:11 25.7 °F 24.0 °F 30.11 in Calm   3.0 mph 93 % 0.00 in
04:26 26.0 °F 24.0 °F 30.11 in Calm   3.0 mph 93 % 0.00 in
04:41 26.1 °F 24.0 °F 30.11 in Calm   3.0 mph 93 % 0.00 in
04:56 26.4 °F 25.0 °F 30.10 in SSE 2.0 mph 6.0 mph 93 % 0.00 in
05:11 27.0 °F 25.0 °F 30.10 in South 9.0 mph 9.0 mph 92 % 0.00 in
05:26 27.5 °F 25.0 °F 30.09 in SSE 2.0 mph 7.0 mph 91 % 0.00 in
05:42 27.7 °F 25.0 °F 30.09 in SSE 1.0 mph 7.0 mph 90 % 0.00 in
05:57 27.9 °F 25.0 °F 30.09 in SSE 4.0 mph 5.0 mph 89 % 0.00 in
06:12 28.1 °F 25.0 °F 30.07 in SSE 1.0 mph 6.0 mph 88 % 0.00 in
06:27 28.2 °F 25.0 °F 30.05 in SSE 2.0 mph 7.0 mph 87 % 0.00 in
06:42 28.2 °F 25.0 °F 30.04 in SSE 2.0 mph 6.0 mph 87 % 0.00 in
06:57 28.1 °F 25.0 °F 30.03 in SSE 1.0 mph 5.0 mph 86 % 0.00 in
07:12 28.6 °F 25.0 °F 30.03 in SSE 4.0 mph 8.0 mph 86 % 0.00 in
07:27 29.1 °F 25.0 °F 30.02 in SSE 3.0 mph 7.0 mph 85 % 0.00 in
07:42 29.3 °F 25.0 °F 30.02 in Calm   7.0 mph 84 % 0.00 in
07:57 29.8 °F 25.0 °F 30.01 in SE 1.0 mph 6.0 mph 83 % 0.00 in
08:12 30.7 °F 26.0 °F 30.00 in SSE 4.0 mph 8.0 mph 82 % 0.00 in
08:27 32.0 °F 27.0 °F 29.99 in South 2.0 mph 7.0 mph 81 % 0.00 in
08:42 34.4 °F 28.0 °F 29.99 in SSE 2.0 mph 7.0 mph 78 % 0.00 in
08:57 35.9 °F 29.0 °F 29.98 in SW 2.0 mph 8.0 mph 77 % 0.00 in
09:12 37.1 °F 31.0 °F 29.97 in Calm   7.0 mph 77 % 0.00 in
09:27 38.4 °F 31.0 °F 29.95 in South 6.0 mph 9.0 mph 76 % 0.00 in
09:42 39.6 °F 32.0 °F 29.93 in South 4.0 mph 9.0 mph 75 % 0.00 in
09:58 41.1 °F 33.0 °F 29.93 in South 6.0 mph 8.0 mph 73 % 0.00 in
10:13 42.5 °F 34.0 °F 29.93 in South 3.0 mph 12.0 mph 71 % 0.00 in
10:28 44.5 °F 33.0 °F 29.92 in WSW 3.0 mph 15.0 mph 64 % 0.00 in
10:43 45.6 °F 32.0 °F 29.92 in South 11.0 mph 12.0 mph 59 % 0.00 in
10:58 46.6 °F 31.0 °F 29.92 in SSE 4.0 mph 12.0 mph 56 % 0.00 in
11:13 47.1 °F 31.0 °F 29.90 in SSE 2.0 mph 15.0 mph 53 % 0.00 in
11:28 47.5 °F 30.0 °F 29.89 in SSE 5.0 mph 14.0 mph 50 % 0.00 in
11:43 47.9 °F 29.0 °F 29.88 in South 7.0 mph 13.0 mph 49 % 0.00 in
11:58 48.0 °F 29.0 °F 29.87 in South 7.0 mph 12.0 mph 48 % 0.00 in
12:13 48.7 °F 29.0 °F 29.85 in South 1.0 mph 11.0 mph 47 % 0.00 in
12:28 49.0 °F 29.0 °F 29.83 in ESE 4.0 mph 10.0 mph 46 % 0.00 in
12:43 49.5 °F 29.0 °F 29.81 in South 6.0 mph 11.0 mph 46 % 0.00 in
12:58 50.4 °F 28.0 °F 29.80 in South 3.0 mph 10.0 mph 43 % 0.00 in
13:13 51.7 °F 28.0 °F 29.78 in South 5.0 mph 14.0 mph 40 % 0.00 in
13:28 52.4 °F 27.0 °F 29.76 in SSW 12.0 mph 12.0 mph 37 % 0.00 in
13:43 52.3 °F 27.0 °F 29.74 in SSW 8.0 mph 16.0 mph 37 % 0.00 in
13:58 52.6 °F 28.0 °F 29.73 in South 7.0 mph 10.0 mph 39 % 0.00 in
14:13 52.6 °F 28.0 °F 29.72 in SSE 3.0 mph 14.0 mph 39 % 0.00 in
14:29 52.3 °F 28.0 °F 29.70 in SW 4.0 mph 14.0 mph 39 % 0.00 in
14:44 51.7 °F 28.0 °F 29.69 in South 7.0 mph 14.0 mph 40 % 0.00 in
14:59 51.7 °F 29.0 °F 29.68 in SSW 5.0 mph 13.0 mph 42 % 0.00 in
15:16 50.9 °F 29.0 °F 29.69 in SSW 14.0 mph 14.0 mph 43 % 0.00 in
15:29 50.7 °F 29.0 °F 29.67 in WNW 9.0 mph 16.0 mph 44 % 0.00 in
15:44 50.7 °F 30.0 °F 29.65 in SSE 6.0 mph 14.0 mph 46 % 0.00 in
15:59 50.8 °F 31.0 °F 29.64 in South 4.0 mph 9.0 mph 46 % 0.00 in
16:14 51.2 °F 30.0 °F 29.64 in Calm   11.0 mph 45 % 0.00 in
16:29 51.2 °F 30.0 °F 29.66 in South 2.0 mph 7.0 mph 45 % 0.00 in
16:44 51.3 °F 29.0 °F 29.67 in SSW 2.0 mph 10.0 mph 43 % 0.00 in
16:59 51.1 °F 30.0 °F 29.67 in SSW 2.0 mph 6.0 mph 44 % 0.00 in
17:14 50.7 °F 30.0 °F 29.69 in WSW 7.0 mph 7.0 mph 45 % 0.00 in
17:29 50.1 °F 29.0 °F 29.69 in SSW 1.0 mph 6.0 mph 45 % 0.00 in
17:44 49.7 °F 29.0 °F 29.69 in Calm   5.0 mph 46 % 0.00 in
17:59 49.1 °F 30.0 °F 29.69 in Calm   2.0 mph 48 % 0.00 in
18:14 48.2 °F 30.0 °F 29.70 in Calm   1.0 mph 50 % 0.00 in
18:29 47.2 °F 30.0 °F 29.70 in Calm     52 % 0.00 in
18:44 46.0 °F 30.0 °F 29.70 in Calm     54 % 0.00 in
18:59 45.1 °F 30.0 °F 29.70 in Calm   1.0 mph 56 % 0.00 in
19:14 44.5 °F 30.0 °F 29.70 in Calm     57 % 0.00 in
19:29 43.8 °F 30.0 °F 29.70 in Calm     58 % 0.00 in
19:44 43.2 °F 30.0 °F 29.70 in Calm   2.0 mph 61 % 0.00 in
20:01 43.3 °F 31.0 °F 29.69 in Calm   4.0 mph 63 % 0.00 in
20:15 43.9 °F 32.0 °F 29.69 in Calm   4.0 mph 63 % 0.00 in
20:30 44.5 °F 32.0 °F 29.69 in South 3.0 mph 4.0 mph 62 % 0.00 in
20:46 44.5 °F 32.0 °F 29.69 in Calm   3.0 mph 63 % 0.00 in
21:00 44.4 °F 33.0 °F 29.70 in Calm   3.0 mph 64 % 0.00 in
21:15 44.2 °F 33.0 °F 29.70 in South 1.0 mph 4.0 mph 66 % 0.00 in
21:30 44.2 °F 34.0 °F 29.69 in South 2.0 mph 3.0 mph 67 % 0.00 in
21:45 44.2 °F 34.0 °F 29.69 in Calm   3.0 mph 68 % 0.00 in
22:00 44.5 °F 34.0 °F 29.69 in South 3.0 mph 5.0 mph 68 % 0.00 in
22:15 44.6 °F 34.0 °F 29.69 in Calm   4.0 mph 67 % 0.00 in
22:30 44.5 °F 34.0 °F 29.68 in Calm   3.0 mph 67 % 0.00 in
22:45 44.2 °F 34.0 °F 29.69 in Calm   3.0 mph 68 % 0.00 in
23:00 43.9 °F 34.0 °F 29.69 in Calm   3.0 mph 68 % 0.00 in
23:15 43.7 °F 34.0 °F 29.69 in Calm     69 % 0.00 in
23:30 43.5 °F 34.0 °F 29.70 in Calm   1.0 mph 70 % 0.00 in
23:45 43.4 °F 34.0 °F 29.69 in Calm   3.0 mph 70 % 0.00 in
Des Moines Weather and Climate
Compliments of Weather Underground - 3 mb

Script developed by  Jim McMurry - jmcmurry@mwt.net Adapted for the template by  Wim van der Kuil - Leuven-Template.eu

You find our weather info also at:

Weather Underground

Equipment we use:

Weather-station
Davis VP2 Plus

Weather-program
Davis Weatherlink.Com

Weather-server
iMac (Retina 4K, 21.5-inch, Late 2015)

Provider
Hostmonster.com

Davis VP2 Plus

Davis Weatherlink.Com

iMac (Retina 4K, 21.5-inch, Late 2015)

Hostmonster.com